PAS646 WALL-WAHI
Flight info
| Callsign | PAS646 |
|---|---|
| Flight time | N/A |
| Altitude | 35000 |
| Route | AJAMA T14 LAVOV T26 ANY W17N SO |
| Aircraft | A320/M-SDE3FGHIRWY/LB1 |
Departure
| Time | N/A |
|---|---|
| Airport | Sultan Aji Muhammad Sulaiman Sepinggan International Airport (WALL) |
Arrival
| Time | 2026-04-28 04:40 |
|---|---|
| Airport | Yogyakarta International Airport (WAHI) |
| Time | Latitude | Longitude | Altitude | Speed | Heading |
|---|---|---|---|---|---|
| 2026-04-28 04:37 | -7.86593 | 109.94937 | 1507 ft | 150 kts | 111° |
| 2026-04-28 04:37 | -7.86947 | 109.95907 | 1524 ft | 149 kts | 111° |
| 2026-04-28 04:37 | -7.87303 | 109.96882 | 1480 ft | 147 kts | 111° |
| 2026-04-28 04:38 | -7.87663 | 109.97867 | 1355 ft | 148 kts | 111° |
| 2026-04-28 04:38 | -7.88017 | 109.98835 | 1176 ft | 147 kts | 111° |
| 2026-04-28 04:38 | -7.88363 | 109.99785 | 999 ft | 146 kts | 111° |
| 2026-04-28 04:38 | -7.88718 | 110.00756 | 803 ft | 145 kts | 111° |
| 2026-04-28 04:39 | -7.89063 | 110.01701 | 622 ft | 145 kts | 111° |
| 2026-04-28 04:39 | -7.89412 | 110.02658 | 426 ft | 146 kts | 111° |
| 2026-04-28 04:39 | -7.89760 | 110.03616 | 220 ft | 146 kts | 110° |
| 2026-04-28 04:39 | -7.90111 | 110.04575 | 63 ft | 145 kts | 111° |
| 2026-04-28 04:40 | -7.90435 | 110.05452 | 39 ft | 111 kts | 110° |
| 2026-04-28 04:40 | -7.90641 | 110.06015 | 43 ft | 58 kts | 110° |
| 2026-04-28 04:40 | -7.90678 | 110.06195 | 41 ft | 11 kts | 83° |
| 2026-04-28 04:40 | -7.90661 | 110.06258 | 42 ft | 8 kts | 72° |
| 2026-04-28 04:41 | -7.90646 | 110.06311 | 43 ft | 8 kts | 73° |
| 2026-04-28 04:41 | -7.90633 | 110.06362 | 42 ft | 7 kts | 79° |
| 2026-04-28 04:41 | -7.90627 | 110.06413 | 41 ft | 8 kts | 84° |
| 2026-04-28 04:41 | -7.90605 | 110.06466 | 39 ft | 11 kts | 39° |
| 2026-04-28 04:42 | -7.90525 | 110.06498 | 37 ft | 12 kts | 20° |
| 2026-04-28 04:42 | -7.90466 | 110.06509 | 38 ft | 10 kts | 355° |
| 2026-04-28 04:42 | -7.90432 | 110.06444 | 37 ft | 15 kts | 289° |
| 2026-04-28 04:42 | -7.90398 | 110.06349 | 38 ft | 14 kts | 290° |
| 2026-04-28 04:43 | -7.90366 | 110.06264 | 38 ft | 12 kts | 290° |
| 2026-04-28 04:43 | -7.90338 | 110.06190 | 38 ft | 11 kts | 290° |
| 2026-04-28 04:43 | -7.90314 | 110.06125 | 38 ft | 9 kts | 291° |
| 2026-04-28 04:43 | -7.90290 | 110.06061 | 38 ft | 11 kts | 290° |
| 2026-04-28 04:44 | -7.90262 | 110.05987 | 37 ft | 11 kts | 290° |
| 2026-04-28 04:44 | -7.90238 | 110.05922 | 37 ft | 9 kts | 290° |
| 2026-04-28 04:44 | -7.90217 | 110.05867 | 38 ft | 8 kts | 290° |
| 2026-04-28 04:44 | -7.90180 | 110.05845 | 38 ft | 6 kts | 359° |
| 2026-04-28 04:45 | -7.90144 | 110.05856 | 37 ft | 5 kts | 21° |
| 2026-04-28 04:45 | -7.90117 | 110.05867 | 38 ft | 2 kts | 21° |
| 2026-04-28 04:45 | -7.90112 | 110.05869 | 38 ft | 0 kts | 20° |